createdAt,value
2024-01-08T00:01:07.344Z,-0.70
2024-01-08T00:03:35.945Z,-0.80
2024-01-08T00:06:04.592Z,-0.80
2024-01-08T00:08:33.239Z,-0.80
2024-01-08T00:11:03.194Z,-0.80
2024-01-08T00:13:32.107Z,-0.80
2024-01-08T00:16:00.648Z,-0.80
2024-01-08T00:18:30.362Z,-0.80
2024-01-08T00:21:00.742Z,-0.80
2024-01-08T00:23:29.787Z,-0.80
2024-01-08T00:25:58.420Z,-0.80
2024-01-08T00:28:28.542Z,-0.80
2024-01-08T00:30:57.231Z,-0.80
2024-01-08T00:33:26.085Z,-0.80
2024-01-08T00:35:55.080Z,-0.80
2024-01-08T00:38:23.797Z,-0.80
2024-01-08T00:40:52.395Z,-0.80
2024-01-08T00:43:21.000Z,-0.80
2024-01-08T00:45:50.969Z,-0.80
2024-01-08T00:48:19.725Z,-0.80
2024-01-08T00:50:49.383Z,-0.80
2024-01-08T00:53:18.117Z,-0.80
2024-01-08T00:55:46.726Z,-0.80
2024-01-08T00:58:15.455Z,-0.80
2024-01-08T01:00:44.095Z,-0.80
2024-01-08T01:03:14.271Z,-0.80
2024-01-08T01:05:43.015Z,-0.80
2024-01-08T01:08:12.335Z,-0.80
2024-01-08T01:10:41.008Z,-0.80
2024-01-08T01:13:09.639Z,-0.80
2024-01-08T01:15:38.167Z,-0.90
2024-01-08T01:18:07.299Z,-0.90
2024-01-08T01:20:37.400Z,-0.90
2024-01-08T01:23:06.038Z,-1.00
2024-01-08T01:25:34.681Z,-1.10
2024-01-08T01:28:03.191Z,-1.20
2024-01-08T01:30:31.803Z,-1.20
2024-01-08T01:33:00.542Z,-1.30
2024-01-08T01:35:29.200Z,-1.40
2024-01-08T01:37:59.740Z,-1.40
2024-01-08T01:40:28.336Z,-1.50
2024-01-08T01:42:56.960Z,-1.50
2024-01-08T01:45:26.120Z,-1.60
2024-01-08T01:47:56.817Z,-1.60
2024-01-08T01:50:26.604Z,-1.70
2024-01-08T01:52:55.537Z,-1.70
2024-01-08T01:55:25.542Z,-1.80
2024-01-08T01:57:54.823Z,-1.80
2024-01-08T02:00:23.757Z,-1.80
2024-01-08T02:02:52.693Z,-1.90
2024-01-08T02:05:24.853Z,-1.90
2024-01-08T02:07:55.070Z,-1.90
2024-01-08T02:10:25.171Z,-1.90
2024-01-08T02:12:53.994Z,-1.90
2024-01-08T02:15:22.760Z,-1.90
2024-01-08T02:17:51.443Z,-2.00
2024-01-08T02:20:20.682Z,-2.00
2024-01-08T02:22:50.621Z,-2.00
2024-01-08T02:25:19.149Z,-2.10
2024-01-08T02:27:47.770Z,-2.10
2024-01-08T02:30:16.523Z,-2.10
2024-01-08T02:32:45.291Z,-2.10
2024-01-08T02:35:14.162Z,-2.10
2024-01-08T02:37:42.949Z,-2.20
2024-01-08T02:40:14.116Z,-2.20
2024-01-08T02:42:42.949Z,-2.20
2024-01-08T02:45:11.799Z,-2.20
2024-01-08T02:47:41.508Z,-2.20
2024-01-08T02:50:11.253Z,-2.30
2024-01-08T02:52:40.073Z,-2.30
2024-01-08T02:55:10.943Z,-2.30
2024-01-08T02:57:41.032Z,-2.30
2024-01-08T03:00:10.886Z,-2.30
2024-01-08T03:02:40.558Z,-2.40
2024-01-08T03:05:10.164Z,-2.40
2024-01-08T03:07:38.743Z,-2.40
2024-01-08T03:10:07.923Z,-2.40
2024-01-08T03:12:36.966Z,-2.40
2024-01-08T03:15:08.329Z,-2.40
2024-01-08T03:17:37.093Z,-2.40
2024-01-08T03:20:09.887Z,-2.50
2024-01-08T03:22:40.242Z,-2.40
2024-01-08T03:25:09.760Z,-2.40
2024-01-08T03:27:39.119Z,-2.40
2024-01-08T03:30:10.388Z,-2.20
2024-01-08T03:32:39.176Z,-2.40
2024-01-08T03:35:08.426Z,-2.30
2024-01-08T03:37:37.291Z,-2.30
2024-01-08T03:40:07.686Z,-2.20
2024-01-08T03:42:36.343Z,-2.20
2024-01-08T03:45:05.152Z,-2.30
2024-01-08T03:47:35.976Z,-2.30
2024-01-08T03:50:06.429Z,-2.30
2024-01-08T03:52:35.248Z,-2.40
2024-01-08T03:55:03.898Z,-2.40
2024-01-08T03:57:32.445Z,-2.40
2024-01-08T04:00:01.087Z,-2.30
2024-01-08T04:02:29.709Z,-2.30
2024-01-08T04:04:59.916Z,-2.30
2024-01-08T04:07:28.608Z,-2.20
2024-01-08T04:09:57.146Z,-2.20
2024-01-08T04:12:25.688Z,-2.10
2024-01-08T04:14:54.192Z,-2.00
2024-01-08T04:17:22.869Z,-2.00
2024-01-08T04:19:51.456Z,-1.90
2024-01-08T04:22:21.502Z,-1.90
2024-01-08T04:24:50.045Z,-1.80
2024-01-08T04:27:18.600Z,-1.80
2024-01-08T04:29:47.209Z,-1.70
2024-01-08T04:32:15.948Z,-1.70
2024-01-08T04:34:44.557Z,-1.60
2024-01-08T04:37:13.140Z,-1.60
2024-01-08T04:39:43.141Z,-1.60
2024-01-08T04:42:11.701Z,-1.50
2024-01-08T04:44:40.445Z,-1.50
2024-01-08T04:47:09.099Z,-1.50
2024-01-08T04:49:37.757Z,-1.40
2024-01-08T04:52:06.602Z,-1.40
2024-01-08T04:54:35.202Z,-1.40
2024-01-08T04:57:05.569Z,-1.30
2024-01-08T04:59:34.185Z,-1.30
2024-01-08T05:02:02.838Z,-1.30
2024-01-08T05:04:31.445Z,-1.30
2024-01-08T05:07:00.208Z,-1.20
2024-01-08T05:09:28.922Z,-1.20
2024-01-08T05:11:57.544Z,-1.20
2024-01-08T05:14:27.517Z,-1.20
2024-01-08T05:16:56.090Z,-1.20
2024-01-08T05:19:24.787Z,-1.10
2024-01-08T05:21:54.232Z,-1.10
2024-01-08T05:24:22.846Z,-1.10
2024-01-08T05:26:51.351Z,-1.10
2024-01-08T05:29:19.938Z,-1.10
2024-01-08T05:31:50.178Z,-1.00
2024-01-08T05:34:18.787Z,-1.00
2024-01-08T05:36:47.414Z,-1.00
2024-01-08T05:39:18.317Z,-1.00
2024-01-08T05:41:47.331Z,-0.90
2024-01-08T05:44:15.950Z,-1.00
2024-01-08T05:46:45.277Z,-1.00
2024-01-08T05:49:15.624Z,-1.00
2024-01-08T05:51:44.580Z,-1.00
2024-01-08T05:54:13.138Z,-0.90
2024-01-08T05:56:41.770Z,-0.90
2024-01-08T05:59:10.505Z,-0.90
2024-01-08T06:01:39.982Z,-0.90
2024-01-08T06:04:08.858Z,-0.90
2024-01-08T06:06:38.968Z,-0.90
2024-01-08T06:09:10.129Z,-0.80
2024-01-08T06:11:38.980Z,-0.80
2024-01-08T06:14:08.051Z,-0.80
2024-01-08T06:16:37.410Z,-0.80
2024-01-08T06:19:06.175Z,-0.70
2024-01-08T06:21:34.774Z,-0.80
2024-01-08T06:24:04.967Z,-0.80
2024-01-08T06:26:33.561Z,-0.70
2024-01-08T06:29:02.738Z,-0.70
2024-01-08T06:31:31.393Z,-0.70
2024-01-08T06:34:01.613Z,-0.70
2024-01-08T06:36:30.287Z,-0.70
2024-01-08T06:38:58.789Z,-0.70
2024-01-08T06:41:28.931Z,-0.70
2024-01-08T06:43:57.624Z,-0.70
2024-01-08T06:46:27.634Z,-0.70
2024-01-08T06:48:56.371Z,-0.60
2024-01-08T06:51:25.075Z,-0.60
2024-01-08T06:53:53.734Z,-0.60
2024-01-08T06:56:22.383Z,-0.60
2024-01-08T06:58:52.341Z,-0.60
2024-01-08T07:01:21.180Z,-0.60
2024-01-08T07:03:49.816Z,-0.40
2024-01-08T07:06:18.628Z,-0.60
2024-01-08T07:08:47.707Z,-0.60
2024-01-08T07:11:22.290Z,-0.60
2024-01-08T07:13:52.749Z,-0.60
2024-01-08T07:16:21.558Z,-0.50
2024-01-08T07:18:50.299Z,-0.50
2024-01-08T07:21:19.851Z,-0.50
2024-01-08T07:23:49.738Z,-0.50
2024-01-08T07:26:19.116Z,-0.40
2024-01-08T07:28:48.551Z,-0.50
2024-01-08T07:31:18.713Z,-0.40
2024-01-08T07:33:47.450Z,-0.40
2024-01-08T07:36:16.195Z,-0.40
2024-01-08T07:38:44.899Z,-0.40
2024-01-08T07:41:14.815Z,-0.40
2024-01-08T07:43:43.499Z,-0.40
2024-01-08T07:46:12.157Z,-0.40
2024-01-08T07:48:42.235Z,-0.40
2024-01-08T07:51:11.721Z,-0.30
2024-01-08T07:53:40.487Z,-0.30
2024-01-08T07:56:09.173Z,-0.30
2024-01-08T07:58:42.145Z,-0.30
2024-01-08T08:01:13.881Z,-0.30
2024-01-08T08:03:44.146Z,-0.30
2024-01-08T08:06:13.058Z,-0.30
2024-01-08T08:08:42.008Z,-0.30
2024-01-08T08:11:12.099Z,-0.20
2024-01-08T08:13:40.684Z,-0.30
2024-01-08T08:16:10.874Z,-0.30
2024-01-08T08:18:40.534Z,-0.30
2024-01-08T08:21:13.234Z,-0.20
2024-01-08T08:23:42.078Z,-0.20
2024-01-08T08:26:14.939Z,-0.20
2024-01-08T08:28:45.494Z,-0.20
2024-01-08T08:31:14.909Z,-0.20
2024-01-08T08:33:44.189Z,-0.20
2024-01-08T08:36:16.419Z,-0.10
2024-01-08T08:38:46.906Z,-0.10
2024-01-08T08:41:15.877Z,-0.10
2024-01-08T08:43:44.528Z,-0.10
2024-01-08T08:46:13.174Z,-0.10
2024-01-08T08:48:41.898Z,0.00
2024-01-08T08:51:10.528Z,0.00
2024-01-08T08:53:40.493Z,0.00
2024-01-08T08:56:11.537Z,0.00
2024-01-08T08:58:40.240Z,0.00
2024-01-08T09:01:09.045Z,0.10
2024-01-08T09:03:40.204Z,0.10
2024-01-08T09:06:10.257Z,0.10
2024-01-08T09:08:40.359Z,0.10
2024-01-08T09:11:09.500Z,0.10
2024-01-08T09:13:38.132Z,0.10
2024-01-08T09:16:06.830Z,0.30
2024-01-08T09:18:36.685Z,0.20
2024-01-08T09:21:07.258Z,0.20
2024-01-08T09:23:35.894Z,0.20
2024-01-08T09:26:06.390Z,0.30
2024-01-08T09:28:35.317Z,0.30
2024-01-08T09:31:05.837Z,0.30
2024-01-08T09:33:34.935Z,0.30
2024-01-08T09:36:03.759Z,0.30
2024-01-08T09:38:32.485Z,0.40
2024-01-08T09:41:04.680Z,0.40
2024-01-08T09:43:40.251Z,0.40
2024-01-08T09:46:10.515Z,0.50
2024-01-08T09:48:39.793Z,0.50
2024-01-08T09:51:09.581Z,0.50
2024-01-08T09:53:38.549Z,0.50
2024-01-08T09:56:10.875Z,0.50
2024-01-08T09:58:40.903Z,0.50
2024-01-08T10:01:11.323Z,0.40
2024-01-08T10:03:40.423Z,0.40
2024-01-08T10:06:10.060Z,0.40
2024-01-08T10:08:39.268Z,0.50
2024-01-08T10:11:08.796Z,0.50
2024-01-08T10:13:37.894Z,0.50
2024-01-08T10:16:08.095Z,0.50
2024-01-08T10:18:37.129Z,0.60
2024-01-08T10:21:14.226Z,0.60
2024-01-08T10:23:43.428Z,0.60
2024-01-08T10:26:14.185Z,0.70
2024-01-08T10:28:42.938Z,0.60
2024-01-08T10:31:14.383Z,0.70
2024-01-08T10:33:42.944Z,0.60
2024-01-08T10:36:12.160Z,0.70
2024-01-08T10:38:41.513Z,0.70
2024-01-08T10:41:12.378Z,0.70
2024-01-08T10:43:40.935Z,0.90
2024-01-08T10:46:11.698Z,0.70
2024-01-08T10:48:47.760Z,0.70
2024-01-08T10:51:19.718Z,0.70
2024-01-08T10:53:50.892Z,0.80
2024-01-08T10:56:20.770Z,0.80
2024-01-08T10:58:55.165Z,0.80
2024-01-08T11:01:24.179Z,0.80
2024-01-08T11:03:54.513Z,0.80
2024-01-08T11:06:24.418Z,0.80
2024-01-08T11:08:53.287Z,0.80
2024-01-08T11:11:22.843Z,0.80
2024-01-08T11:13:51.574Z,0.90
2024-01-08T11:16:26.467Z,0.90
2024-01-08T11:19:29.300Z,1.00
2024-01-08T11:22:11.835Z,1.00
2024-01-08T11:24:42.343Z,1.00
2024-01-08T11:27:11.028Z,1.10
2024-01-08T11:29:40.006Z,1.10
2024-01-08T11:32:55.102Z,1.10
2024-01-08T11:35:31.147Z,1.10
2024-01-08T11:38:26.414Z,1.10
2024-01-08T11:40:56.433Z,1.00
2024-01-08T11:43:25.474Z,1.20
2024-01-08T11:45:54.126Z,1.00
2024-01-08T11:48:23.083Z,1.00
2024-01-08T11:50:53.550Z,1.00
2024-01-08T11:53:23.267Z,1.00
2024-01-08T11:55:52.016Z,0.90
2024-01-08T11:58:20.702Z,0.90
2024-01-08T12:00:49.466Z,0.90
2024-01-08T12:03:25.199Z,0.80
2024-01-08T12:06:06.065Z,0.80
2024-01-08T12:08:36.141Z,0.80
2024-01-08T12:11:06.826Z,0.80
2024-01-08T12:13:35.521Z,0.80
2024-01-08T12:16:06.426Z,0.80
2024-01-08T12:18:35.750Z,0.70
2024-01-08T12:21:06.733Z,0.70
2024-01-08T12:23:35.616Z,0.80
2024-01-08T12:26:04.969Z,0.70
2024-01-08T12:28:34.982Z,0.70
2024-01-08T12:31:03.813Z,0.70
2024-01-08T12:33:32.462Z,0.80
2024-01-08T12:36:01.765Z,1.00
2024-01-08T12:38:32.744Z,1.10
2024-01-08T12:41:01.587Z,1.30
2024-01-08T12:43:30.850Z,1.40
2024-01-08T12:45:59.464Z,1.50
2024-01-08T12:48:28.272Z,1.50
2024-01-08T12:50:56.960Z,1.50
2024-01-08T12:53:26.186Z,1.40
2024-01-08T12:55:56.236Z,1.30
2024-01-08T12:58:24.784Z,1.30
2024-01-08T13:00:53.413Z,1.20
2024-01-08T13:03:22.245Z,1.20
2024-01-08T13:05:50.972Z,1.10
2024-01-08T13:08:19.760Z,1.10
2024-01-08T13:10:48.437Z,1.00
2024-01-08T13:13:18.443Z,1.00
2024-01-08T13:15:47.061Z,1.00
2024-01-08T13:18:15.796Z,1.00
2024-01-08T13:20:44.518Z,0.90
2024-01-08T13:23:13.159Z,0.90
2024-01-08T13:25:42.321Z,0.80
2024-01-08T13:28:10.892Z,0.80
2024-01-08T13:30:43.322Z,0.80
2024-01-08T13:33:12.042Z,0.80
2024-01-08T13:35:40.842Z,0.70
2024-01-08T13:38:09.546Z,0.80
2024-01-08T13:40:38.219Z,0.80
2024-01-08T13:43:07.903Z,0.70
2024-01-08T13:45:36.538Z,0.70
2024-01-08T13:48:07.752Z,0.70
2024-01-08T13:50:36.456Z,0.70
2024-01-08T13:53:05.360Z,0.70
2024-01-08T13:55:34.106Z,0.70
2024-01-08T13:58:03.864Z,0.70
2024-01-08T14:00:32.891Z,0.70
2024-01-08T14:03:03.426Z,0.70
2024-01-08T14:05:34.913Z,0.70
2024-01-08T14:08:04.018Z,0.60
2024-01-08T14:10:32.657Z,0.60
2024-01-08T14:13:02.868Z,0.70
2024-01-08T14:15:31.438Z,0.70
2024-01-08T14:18:00.942Z,0.60
2024-01-08T14:20:29.970Z,0.60
2024-01-08T14:23:00.156Z,0.60
2024-01-08T14:25:28.900Z,0.60
2024-01-08T14:27:57.459Z,0.60
2024-01-08T14:30:26.315Z,0.50
2024-01-08T14:32:55.103Z,0.50
2024-01-08T14:35:24.131Z,0.50
2024-01-08T14:37:51.891Z,0.50
2024-01-08T14:40:28.423Z,0.40
2024-01-08T14:42:59.563Z,0.40
2024-01-08T14:45:28.389Z,0.30
2024-01-08T14:47:57.407Z,0.30
2024-01-08T14:50:26.162Z,0.30
2024-01-08T14:52:54.907Z,0.20
2024-01-08T14:55:24.905Z,0.10
2024-01-08T14:57:53.597Z,0.10
2024-01-08T15:00:24.585Z,0.10
2024-01-08T15:02:54.529Z,0.00
2024-01-08T15:05:24.678Z,0.00
2024-01-08T15:07:54.337Z,0.00
2024-01-08T15:10:24.709Z,-0.10
2024-01-08T15:12:53.492Z,-0.20
2024-01-08T15:15:22.173Z,-0.20
2024-01-08T15:17:50.836Z,-0.20
2024-01-08T15:20:20.538Z,-0.30
2024-01-08T15:22:49.405Z,-0.30
2024-01-08T15:25:18.105Z,-0.30
2024-01-08T15:27:48.337Z,-0.40
2024-01-08T15:30:19.050Z,-0.40
2024-01-08T15:32:47.992Z,-0.40
2024-01-08T15:35:16.983Z,-0.50
2024-01-08T15:37:46.094Z,-0.50
2024-01-08T15:40:15.528Z,-0.50
2024-01-08T15:42:44.226Z,-0.50
2024-01-08T15:45:14.521Z,-0.50
2024-01-08T15:47:43.168Z,-0.60
2024-01-08T15:50:12.789Z,-0.60
2024-01-08T15:52:41.899Z,-0.60
2024-01-08T15:55:11.204Z,-0.70
2024-01-08T15:57:39.789Z,-0.70
2024-01-08T16:00:10.296Z,-0.70
2024-01-08T16:02:40.654Z,-0.70
2024-01-08T16:05:10.148Z,-0.70
2024-01-08T16:07:39.147Z,-0.80
2024-01-08T16:10:09.021Z,-0.80
2024-01-08T16:12:37.710Z,-0.80
2024-01-08T16:15:07.184Z,-0.80
2024-01-08T16:17:35.969Z,-0.90
2024-01-08T16:20:07.120Z,-0.90
2024-01-08T16:22:35.781Z,-0.90
2024-01-08T16:25:04.876Z,-0.90
2024-01-08T16:27:33.450Z,-1.00
2024-01-08T16:30:02.074Z,-1.00
2024-01-08T16:32:30.946Z,-1.00
2024-01-08T16:35:01.802Z,-1.00
2024-01-08T16:37:32.354Z,-1.00
2024-01-08T16:40:01.018Z,-1.10
2024-01-08T16:42:29.804Z,-1.10
2024-01-08T16:44:58.485Z,-1.10
2024-01-08T16:47:27.339Z,-1.10
2024-01-08T16:49:56.586Z,-1.10
2024-01-08T16:52:25.289Z,-1.10
2024-01-08T16:54:55.347Z,-1.10
2024-01-08T16:57:23.981Z,-1.10
2024-01-08T16:59:52.975Z,-1.10
2024-01-08T17:02:22.511Z,-1.10
2024-01-08T17:04:51.184Z,-1.20
2024-01-08T17:07:19.863Z,-1.20
2024-01-08T17:09:49.053Z,-1.20
2024-01-08T17:12:19.036Z,-1.20
2024-01-08T17:14:47.865Z,-1.20
2024-01-08T17:17:16.567Z,-1.20
2024-01-08T17:19:45.316Z,-1.20
2024-01-08T17:22:14.528Z,-1.30
2024-01-08T17:24:43.132Z,-1.30
2024-01-08T17:27:11.986Z,-1.30
2024-01-08T17:29:44.394Z,-1.30
2024-01-08T17:32:13.209Z,-1.20
2024-01-08T17:34:42.021Z,-1.30
2024-01-08T17:37:13.756Z,-1.20
2024-01-08T17:39:45.290Z,-1.30
2024-01-08T17:42:14.594Z,-1.30
2024-01-08T17:44:45.915Z,-1.20
2024-01-08T17:47:15.156Z,-1.30
2024-01-08T17:49:43.752Z,-1.30
2024-01-08T17:52:12.303Z,-1.30
2024-01-08T17:54:40.880Z,-1.30
2024-01-08T17:57:09.502Z,-1.20
2024-01-08T17:59:38.346Z,-1.20
2024-01-08T18:02:09.730Z,-1.10
2024-01-08T18:04:38.589Z,-1.10
2024-01-08T18:07:07.404Z,-1.10
2024-01-08T18:09:36.172Z,-1.10
2024-01-08T18:12:05.158Z,-1.20
2024-01-08T18:14:35.003Z,-1.20
2024-01-08T18:17:05.012Z,-1.20
2024-01-08T18:19:35.587Z,-1.30
2024-01-08T18:22:08.466Z,-1.30
2024-01-08T18:24:38.507Z,-1.30
2024-01-08T18:27:09.993Z,-1.30
2024-01-08T18:29:39.176Z,-1.30
2024-01-08T18:32:10.037Z,-1.30
2024-01-08T18:34:40.658Z,-1.40
2024-01-08T18:37:09.331Z,-1.40
2024-01-08T18:39:38.061Z,-1.40
2024-01-08T18:42:07.912Z,-1.40
2024-01-08T18:44:37.873Z,-1.40
2024-01-08T18:47:08.110Z,-1.40
2024-01-08T18:49:37.069Z,-1.40
2024-01-08T18:52:07.756Z,-1.40
2024-01-08T18:54:36.480Z,-1.50
2024-01-08T18:57:05.590Z,-1.50
2024-01-08T18:59:37.461Z,-1.50
2024-01-08T19:02:07.981Z,-1.50
2024-01-08T19:04:36.642Z,-1.50
2024-01-08T19:07:07.938Z,-1.50
2024-01-08T19:09:36.677Z,-1.50
2024-01-08T19:12:08.531Z,-1.50
2024-01-08T19:14:37.229Z,-1.50
2024-01-08T19:17:06.421Z,-1.50
2024-01-08T19:19:35.247Z,-1.50
2024-01-08T19:22:07.171Z,-1.50
2024-01-08T19:24:35.747Z,-1.50
2024-01-08T19:27:04.521Z,-1.50
2024-01-08T19:29:33.226Z,-1.50
2024-01-08T19:32:01.955Z,-1.50
2024-01-08T19:34:30.637Z,-1.60
2024-01-08T19:36:59.495Z,-1.60
2024-01-08T19:39:29.892Z,-1.60
2024-01-08T19:41:59.804Z,-1.60
2024-01-08T19:44:28.398Z,-1.60
2024-01-08T19:46:59.040Z,-1.60
2024-01-08T19:49:31.666Z,-1.60
2024-01-08T19:52:01.101Z,-1.60
2024-01-08T19:54:31.119Z,-1.70
2024-01-08T19:57:00.207Z,-1.70
2024-01-08T19:59:30.700Z,-1.70
2024-01-08T20:01:59.506Z,-1.70
2024-01-08T20:04:28.342Z,-1.70
2024-01-08T20:06:57.902Z,-1.70
2024-01-08T20:09:26.692Z,-1.70
2024-01-08T20:11:57.388Z,-1.70
2024-01-08T20:14:27.992Z,-1.70
2024-01-08T20:16:56.840Z,-1.70
2024-01-08T20:19:25.721Z,-1.70
2024-01-08T20:21:54.393Z,-1.70
2024-01-08T20:24:23.081Z,-1.70
2024-01-08T20:26:51.796Z,-1.70
2024-01-08T20:29:21.857Z,-1.70
2024-01-08T20:31:52.140Z,-1.70
2024-01-08T20:34:21.022Z,-1.80
2024-01-08T20:36:49.794Z,-1.80
2024-01-08T20:39:18.560Z,-1.80
2024-01-08T20:41:49.538Z,-1.80
2024-01-08T20:44:19.703Z,-1.80
2024-01-08T20:46:49.920Z,-1.80
2024-01-08T20:49:20.947Z,-1.80
2024-01-08T20:51:49.711Z,-1.80
2024-01-08T20:54:18.296Z,-1.90
2024-01-08T20:56:47.029Z,-1.90
2024-01-08T20:59:15.679Z,-1.90
2024-01-08T21:01:44.303Z,-1.90
2024-01-08T21:04:14.674Z,-1.90
2024-01-08T21:06:43.708Z,-1.90
2024-01-08T21:09:12.369Z,-1.90
2024-01-08T21:11:41.048Z,-1.90
2024-01-08T21:14:09.683Z,-1.90
2024-01-08T21:16:38.669Z,-2.00
2024-01-08T21:19:07.436Z,-2.00
2024-01-08T21:21:38.952Z,-2.00
2024-01-08T21:24:08.175Z,-2.00
2024-01-08T21:26:36.836Z,-2.00
2024-01-08T21:29:05.639Z,-2.00
2024-01-08T21:31:34.385Z,-2.00
2024-01-08T21:34:03.180Z,-2.00
2024-01-08T21:36:32.065Z,-2.00
2024-01-08T21:39:04.162Z,-2.00
2024-01-08T21:41:32.875Z,-2.00
2024-01-08T21:44:01.577Z,-2.10
2024-01-08T21:46:29.201Z,-2.10
2024-01-08T21:48:57.936Z,-2.10
2024-01-08T21:51:26.958Z,-2.10
2024-01-08T21:53:55.906Z,-2.10
2024-01-08T21:56:25.922Z,-2.10
2024-01-08T21:58:54.800Z,-2.10
2024-01-08T22:01:23.810Z,-2.10
2024-01-08T22:03:52.726Z,-2.10
2024-01-08T22:06:21.399Z,-2.00
2024-01-08T22:08:50.168Z,-2.20
2024-01-08T22:11:18.875Z,-2.20
2024-01-08T22:13:49.482Z,-2.20
2024-01-08T22:16:18.034Z,-2.20
2024-01-08T22:18:46.626Z,-2.20
2024-01-08T22:21:15.304Z,-2.20
2024-01-08T22:23:44.086Z,-2.20
2024-01-08T22:26:12.855Z,-2.20
2024-01-08T22:28:41.498Z,-2.20
2024-01-08T22:31:11.449Z,-2.20
2024-01-08T22:33:40.209Z,-2.20
2024-01-08T22:36:09.161Z,-2.30
2024-01-08T22:38:37.853Z,-2.30
2024-01-08T22:41:06.550Z,-2.30
2024-01-08T22:43:35.552Z,-2.30
2024-01-08T22:46:05.042Z,-2.30
2024-01-08T22:48:35.431Z,-2.30
2024-01-08T22:51:04.249Z,-2.30
2024-01-08T22:53:32.880Z,-2.30
2024-01-08T22:56:01.475Z,-2.30
2024-01-08T22:58:30.162Z,-2.30
2024-01-08T23:00:59.113Z,-2.40
2024-01-08T23:03:28.351Z,-2.40
2024-01-08T23:05:58.421Z,-2.40
2024-01-08T23:08:27.143Z,-2.40
2024-01-08T23:10:56.009Z,-2.40
2024-01-08T23:13:24.719Z,-2.40
2024-01-08T23:15:53.364Z,-2.40
2024-01-08T23:18:22.113Z,-2.40
2024-01-08T23:20:50.953Z,-2.40
2024-01-08T23:23:21.048Z,-2.40
2024-01-08T23:25:49.712Z,-2.50
2024-01-08T23:28:18.418Z,-2.50
2024-01-08T23:30:47.223Z,-2.50
2024-01-08T23:33:16.074Z,-2.50
2024-01-08T23:35:44.933Z,-2.50
2024-01-08T23:38:13.754Z,-2.50
2024-01-08T23:40:43.851Z,-2.50
2024-01-08T23:43:16.638Z,-2.50
2024-01-08T23:45:45.430Z,-2.50
2024-01-08T23:48:14.177Z,-2.50
2024-01-08T23:50:42.894Z,-2.60
2024-01-08T23:53:12.451Z,-2.60
2024-01-08T23:55:42.380Z,-2.60
2024-01-08T23:58:12.522Z,-2.60
